Time;durP1;ratioP1;P1;durP2;ratioP2;P2;SDS_P1;SDS_P2;PMS_P1;PMS_P2;Temp;Humidity;BMP_temperature;BMP_pressure;BME280_temperature;BME280_humidity;BME280_pressure;Samples;Min_cycle;Max_cycle;Signal;HPM_P1;HPM_P2
2023/07/23 00:01:51;;;;;;;12.27;7.10;;;;;;;15.64;100.00;100729.06;5286266;28;20485;-71
2023/07/23 00:04:23;;;;;;;9.98;6.80;;;;;;;15.64;100.00;100725.59;5286030;28;20033;-71
2023/07/23 00:06:54;;;;;;;8.57;6.77;;;;;;;15.65;100.00;100722.91;5284416;28;20041;-71
2023/07/23 00:09:26;;;;;;;11.53;6.07;;;;;;;15.55;100.00;100718.88;5286034;28;20035;-71
2023/07/23 00:11:57;;;;;;;10.63;5.63;;;;;;;15.55;100.00;100716.25;5285701;28;20075;-71
2023/07/23 00:14:28;;;;;;;7.87;5.40;;;;;;;15.53;100.00;100711.97;5285843;28;20138;-70
2023/07/23 00:17:00;;;;;;;9.03;5.80;;;;;;;15.53;100.00;100709.34;5285760;28;20107;-71
2023/07/23 00:19:31;;;;;;;7.03;5.77;;;;;;;15.57;100.00;100698.69;5285478;28;20036;-72
2023/07/23 00:22:02;;;;;;;10.10;5.57;;;;;;;15.56;100.00;100703.97;5285452;28;20453;-71
2023/07/23 00:24:34;;;;;;;9.07;6.50;;;;;;;15.52;100.00;100698.00;5285787;28;20035;-71
2023/07/23 00:27:06;;;;;;;10.33;6.57;;;;;;;15.46;100.00;100691.16;5285673;28;20511;-71
2023/07/23 00:29:37;;;;;;;9.53;6.00;;;;;;;15.46;100.00;100687.69;5285519;28;20028;-71
2023/07/23 00:32:08;;;;;;;9.67;5.37;;;;;;;15.35;100.00;100682.78;5285685;28;20106;-71
2023/07/23 00:34:40;;;;;;;9.03;5.60;;;;;;;15.45;100.00;100680.72;5284269;28;20029;-72
2023/07/23 00:37:11;;;;;;;8.30;5.90;;;;;;;15.41;100.00;100672.09;5284614;28;20059;-71
2023/07/23 00:39:43;;;;;;;8.17;5.20;;;;;;;15.39;100.00;100675.66;5285376;28;20024;-71
2023/07/23 00:42:14;;;;;;;8.00;5.10;;;;;;;15.36;100.00;100673.13;5285163;28;20024;-71
2023/07/23 00:44:45;;;;;;;11.67;6.10;;;;;;;15.38;100.00;100663.47;5284017;28;20036;-72
2023/07/23 00:47:17;;;;;;;8.70;5.50;;;;;;;15.32;100.00;100662.72;5285335;28;20384;-71
2023/07/23 00:49:50;;;;;;;7.82;5.32;;;;;;;15.27;100.00;100656.78;5285231;28;20032;-71
2023/07/23 00:52:21;;;;;;;;;;;;;;;15.38;100.00;100653.78;5285357;28;20042;-71
2023/07/23 00:54:53;;;;;;;7.40;5.18;;;;;;;15.28;100.00;100647.16;5284707;28;20344;-71
2023/07/23 00:57:25;;;;;;;7.82;5.47;;;;;;;15.26;100.00;100641.09;5284680;28;20056;-73
2023/07/23 00:59:56;;;;;;;9.13;5.53;;;;;;;15.24;100.00;100632.41;5283642;28;20025;-72
2023/07/23 01:02:28;;;;;;;10.00;5.60;;;;;;;15.19;100.00;100634.34;5283872;28;20384;-72
2023/07/23 01:05:00;;;;;;;9.77;4.93;;;;;;;15.19;100.00;100623.84;5266706;28;20063;-72
2023/07/23 01:07:33;;;;;;;7.88;5.53;;;;;;;15.15;100.00;100625.72;5284744;28;20039;-71
2023/07/23 01:10:05;;;;;;;6.38;5.15;;;;;;;15.11;100.00;100617.06;5285064;28;20403;-72
2023/07/23 01:12:38;;;;;;;10.43;5.40;;;;;;;15.12;100.00;100613.53;5284772;28;20070;-72
2023/07/23 01:15:10;;;;;;;11.20;5.78;;;;;;;15.13;100.00;100610.03;5284852;28;20068;-71
2023/07/23 01:17:42;;;;;;;6.85;4.68;;;;;;;15.17;100.00;100602.88;5284473;28;20071;-71
2023/07/23 01:20:14;;;;;;;8.00;5.28;;;;;;;15.10;100.00;100596.13;5284647;28;20425;-71
2023/07/23 01:22:45;;;;;;;6.80;4.80;;;;;;;15.10;100.00;100596.13;5284542;28;20064;-72
2023/07/23 01:25:16;;;;;;;6.90;4.80;;;;;;;15.16;100.00;100602.94;5283327;28;20029;-71
2023/07/23 01:27:48;;;;;;;7.93;5.10;;;;;;;15.10;100.00;100594.38;5284550;28;20078;-72
2023/07/23 01:30:19;;;;;;;7.73;5.07;;;;;;;15.11;100.00;100585.56;5284744;28;20040;-71
2023/07/23 01:32:51;;;;;;;7.33;5.13;;;;;;;15.07;100.00;100580.47;5283014;28;20028;-72
2023/07/23 01:35:24;;;;;;;7.22;4.82;;;;;;;15.09;100.00;100581.28;5283844;28;20113;-71
2023/07/23 01:37:57;;;;;;;8.32;5.63;;;;;;;15.06;100.00;100574.38;5284210;28;20044;-72
2023/07/23 01:40:28;;;;;;;8.75;5.15;;;;;;;15.02;100.00;100564.03;5284191;28;20472;-72
2023/07/23 01:43:00;;;;;;;7.00;4.80;;;;;;;15.08;100.00;100569.91;5284367;28;20044;-72
2023/07/23 01:45:32;;;;;;;8.05;5.55;;;;;;;15.05;100.00;100570.06;5284316;28;20444;-72
2023/07/23 01:48:03;;;;;;;8.00;5.70;;;;;;;15.08;100.00;100569.06;5284023;28;20111;-72
2023/07/23 01:50:34;;;;;;;8.63;5.67;;;;;;;15.11;100.00;100556.69;5283973;28;20103;-71
2023/07/23 01:53:07;;;;;;;9.23;5.10;;;;;;;15.11;100.00;100561.09;5283939;28;20033;-72
2023/07/23 01:55:38;;;;;;;8.32;4.97;;;;;;;15.15;100.00;100554.84;5282466;28;20178;-72
2023/07/23 01:58:09;;;;;;;8.10;5.23;;;;;;;15.18;99.54;100554.69;5283857;28;20444;-71
2023/07/23 02:00:41;;;;;;;8.00;5.40;;;;;;;15.23;98.88;100554.53;5299496;28;20028;-71
2023/07/23 02:03:12;;;;;;;11.67;5.33;;;;;;;15.25;97.74;100539.59;5283768;28;20036;-71
2023/07/23 02:05:56;;;;;;;12.45;5.65;;;;;;;15.27;97.85;100543.88;5283256;28;20107;-70
2023/07/23 02:08:28;;;;;;;9.05;5.70;;;;;;;15.29;97.04;100541.19;5283617;28;20464;-70
2023/07/23 02:11:01;;;;;;;11.88;5.45;;;;;;;15.27;97.44;100533.38;5283658;28;20028;-71
2023/07/23 02:13:32;;;;;;;10.90;5.50;;;;;;;15.29;97.45;100523.69;5283291;28;20056;-72
2023/07/23 02:16:04;;;;;;;8.27;5.27;;;;;;;15.32;96.53;100523.53;5283220;28;20064;-71
2023/07/23 02:18:35;;;;;;;10.23;5.77;;;;;;;15.30;96.63;100522.75;5283564;28;20032;-72
2023/07/23 02:21:07;;;;;;;12.03;5.57;;;;;;;15.35;96.37;100522.59;5283563;28;20293;-71
2023/07/23 02:23:38;;;;;;;7.97;5.03;;;;;;;15.38;94.95;100519.84;5282242;28;20029;-71
2023/07/23 02:26:09;;;;;;;6.57;4.73;;;;;;;15.40;94.66;100506.66;5283440;28;20048;-71
2023/07/23 02:28:43;;;;;;;8.77;5.30;;;;;;;15.38;95.23;100514.59;5283465;28;20444;-71
2023/07/23 02:31:15;;;;;;;9.77;5.00;;;;;;;15.39;94.38;100516.31;5283324;28;20055;-71
2023/07/23 02:33:46;;;;;;;6.32;4.72;;;;;;;15.41;93.93;100505.75;5283445;28;20032;-71
2023/07/23 02:36:18;;;;;;;8.00;5.03;;;;;;;15.44;92.95;100505.63;5281699;28;20385;-71
2023/07/23 02:38:49;;;;;;;7.40;4.57;;;;;;;15.48;92.17;100504.59;5283510;28;20078;-72
2023/07/23 02:41:21;;;;;;;14.20;5.53;;;;;;;15.50;91.82;100498.38;5283255;28;20058;-70
2023/07/23 02:43:54;;;;;;;8.67;4.73;;;;;;;15.58;89.35;100497.22;5282200;28;20120;-71
2023/07/23 02:46:25;;;;;;;6.28;4.50;;;;;;;15.58;89.68;100498.06;5283191;28;20060;-70
2023/07/23 02:48:56;;;;;;;7.53;5.23;;;;;;;15.64;88.66;100495.22;5283057;28;20495;-71
2023/07/23 02:51:28;;;;;;;6.73;4.33;;;;;;;15.63;89.11;100500.53;5282871;28;20043;-71
2023/07/23 02:54:00;;;;;;;9.17;4.80;;;;;;;15.64;88.87;100487.34;5283316;28;20040;-71
2023/07/23 02:56:32;;;;;;;;;;;;;;;15.73;89.30;100491.38;5283406;28;20421;-71
2023/07/23 02:59:03;;;;;;;6.35;4.78;;;;;;;15.66;88.11;100485.53;5282822;28;19920;-71
2023/07/23 03:01:36;;;;;;;7.40;4.53;;;;;;;15.67;87.66;100486.38;5282857;28;20107;-71
2023/07/23 03:04:07;;;;;;;7.75;3.75;;;;;;;15.67;87.42;100483.75;5283072;28;20041;-71
2023/07/23 03:06:39;;;;;;;7.30;4.30;;;;;;;15.74;86.78;100486.97;5282763;28;20085;-71
2023/07/23 03:09:10;;;;;;;8.20;4.53;;;;;;;15.69;86.87;100481.91;5283147;28;20029;-71
2023/07/23 03:11:42;;;;;;;8.00;4.50;;;;;;;15.76;86.06;100482.50;5283044;28;20742;-70
2023/07/23 03:14:13;;;;;;;6.57;4.77;;;;;;;15.77;85.11;100482.50;5281762;28;20025;-70
2023/07/23 03:16:44;;;;;;;7.70;4.47;;;;;;;15.79;85.14;100482.44;5281690;28;20032;-70
2023/07/23 03:19:16;;;;;;;6.33;4.17;;;;;;;15.79;84.67;100475.41;5283013;28;20064;-70
2023/07/23 03:21:47;;;;;;;6.20;3.93;;;;;;;15.81;84.55;100480.59;5282701;28;20029;-70
2023/07/23 03:24:20;;;;;;;7.27;4.83;;;;;;;15.80;84.12;100474.47;5282605;28;20040;-70
2023/07/23 03:26:51;;;;;;;;;;;;;;;15.82;85.03;100482.31;5285596;28;20024;-70
2023/07/23 03:29:22;;;;;;;7.35;3.92;;;;;;;15.76;84.05;100485.16;5285358;28;19919;-71
2023/07/23 03:31:53;;;;;;;6.90;4.60;;;;;;;15.80;83.40;100484.16;5286914;28;20032;-71
2023/07/23 03:34:25;;;;;;;5.83;3.73;;;;;;;15.78;83.84;100478.97;5286654;28;20037;-71
2023/07/23 03:36:56;;;;;;;6.73;4.60;;;;;;;15.77;83.69;100476.38;5286363;28;20024;-71
2023/07/23 03:39:28;;;;;;;6.03;4.23;;;;;;;15.79;83.09;100480.69;5286112;28;20543;-71
2023/07/23 03:42:00;;;;;;;10.40;4.33;;;;;;;15.78;83.17;100476.31;5286753;28;20032;-70
2023/07/23 03:44:31;;;;;;;6.30;3.97;;;;;;;15.77;83.40;100473.75;5286337;28;20036;-70
2023/07/23 03:47:09;;;;;;;6.63;3.90;;;;;;;15.77;82.98;100473.75;5286376;28;20033;-70
2023/07/23 03:49:41;;;;;;;7.00;4.20;;;;;;;15.79;82.72;100477.16;5286415;28;20036;-70
2023/07/23 03:52:13;;;;;;;10.70;4.35;;;;;;;15.77;82.94;100479.84;5286316;28;20035;-70
2023/07/23 03:54:45;;;;;;;9.20;4.22;;;;;;;15.79;82.22;100480.69;5285986;28;20103;-71
2023/07/23 03:57:16;;;;;;;7.10;4.00;;;;;;;15.78;82.25;100478.09;5285952;28;20056;-71
2023/07/23 03:59:48;;;;;;;9.90;3.87;;;;;;;15.77;82.68;100479.84;5286236;28;20109;-70
2023/07/23 04:02:19;;;;;;;6.27;3.83;;;;;;;15.76;81.92;100472.91;5286073;28;20047;-70
2023/07/23 04:04:50;;;;;;;7.17;3.87;;;;;;;15.78;81.86;100476.31;5286034;28;20037;-69
2023/07/23 04:07:22;;;;;;;10.87;4.87;;;;;;;15.81;80.96;100478.84;5284329;28;20033;-70
2023/07/23 04:09:54;;;;;;;9.73;3.87;;;;;;;15.84;80.84;100480.47;5286411;28;20063;-71
2023/07/23 04:12:25;;;;;;;9.18;3.80;;;;;;;15.87;80.55;100480.34;5285875;28;20082;-70
2023/07/23 04:14:57;;;;;;;6.73;4.00;;;;;;;15.91;79.70;100483.75;5285885;28;20063;-70
2023/07/23 04:17:28;;;;;;;8.83;3.57;;;;;;;15.95;79.65;100478.28;5301305;28;20512;-71
2023/07/23 04:20:00;;;;;;;7.00;3.60;;;;;;;15.98;79.24;100479.94;5285827;28;20029;-70
2023/07/23 04:22:31;;;;;;;6.63;4.00;;;;;;;16.00;78.56;100476.34;5285812;28;20040;-70
2023/07/23 04:25:03;;;;;;;5.27;3.20;;;;;;;15.99;79.31;100479.88;5285842;28;20125;-71
2023/07/23 04:27:34;;;;;;;7.87;4.57;;;;;;;16.04;79.11;100477.91;5285587;28;20039;-70
2023/07/23 04:30:06;;;;;;;5.70;3.93;;;;;;;16.01;80.10;100479.81;5284060;28;20025;-70
2023/07/23 04:32:38;;;;;;;12.85;3.55;;;;;;;16.09;78.03;100474.25;5284242;28;20071;-71
2023/07/23 04:35:10;;;;;;;10.43;3.85;;;;;;;16.12;77.55;100471.50;5285310;28;20064;-70
2023/07/23 04:37:42;;;;;;;8.33;4.20;;;;;;;16.18;76.53;100480.00;5284172;28;20056;-71
2023/07/23 04:40:13;;;;;;;6.88;3.45;;;;;;;16.15;77.75;100482.75;5285304;28;20424;-71
2023/07/23 04:42:45;;;;;;;8.07;3.33;;;;;;;16.19;77.59;100476.41;5285407;28;20495;-71
2023/07/23 04:45:16;;;;;;;6.03;3.77;;;;;;;16.23;76.46;100478.00;5285046;28;20151;-72
2023/07/23 04:47:47;;;;;;;7.70;3.53;;;;;;;16.19;77.04;100476.41;5284146;28;20036;-70
2023/07/23 04:50:19;;;;;;;7.90;3.90;;;;;;;16.23;76.86;100474.53;5285210;28;20032;-71
2023/07/23 04:52:50;;;;;;;5.03;3.57;;;;;;;16.22;77.11;100478.91;5285093;28;20040;-71
2023/07/23 04:55:21;;;;;;;9.87;4.37;;;;;;;16.25;76.46;100475.31;5285464;28;20028;-70
2023/07/23 04:57:53;;;;;;;5.97;3.23;;;;;;;16.27;76.60;100470.84;5284806;28;20063;-70
2023/07/23 05:00:25;;;;;;;5.17;3.43;;;;;;;16.32;76.47;100463.63;5285262;28;20467;-70
2023/07/23 05:02:56;;;;;;;7.13;3.38;;;;;;;16.32;76.32;100462.78;5284581;28;20055;-71
2023/07/23 05:05:27;;;;;;;6.37;3.50;;;;;;;16.33;76.19;100469.75;5284779;28;20081;-71
2023/07/23 05:07:58;;;;;;;4.87;3.27;;;;;;;16.32;77.25;100468.03;5283671;28;20068;-70
2023/07/23 05:10:30;;;;;;;9.07;3.90;;;;;;;16.33;77.17;100467.97;5284696;28;20039;-71
2023/07/23 05:13:02;;;;;;;10.57;4.07;;;;;;;16.34;76.82;100471.44;5284824;28;20040;-70
2023/07/23 05:15:33;;;;;;;6.75;4.05;;;;;;;16.31;76.90;100477.72;5284557;28;20067;-70
2023/07/23 05:18:04;;;;;;;6.23;3.47;;;;;;;16.29;78.00;100483.94;5284455;28;20091;-69
2023/07/23 05:20:36;;;;;;;8.87;3.53;;;;;;;16.29;77.34;100484.78;5284737;28;20024;-71
2023/07/23 05:23:07;;;;;;;5.07;3.80;;;;;;;16.20;80.00;100478.13;5285061;28;20120;-70
2023/07/23 05:25:38;;;;;;;7.83;3.23;;;;;;;16.19;78.84;100471.16;5284411;28;20028;-71
2023/07/23 05:28:11;;;;;;;5.07;3.13;;;;;;;16.12;80.00;100482.88;5284398;28;20089;-71
2023/07/23 05:30:42;;;;;;;6.35;3.78;;;;;;;16.10;80.48;100466.31;5283992;28;20035;-70
2023/07/23 05:33:13;;;;;;;7.03;3.70;;;;;;;16.18;80.29;100463.31;5284375;28;20029;-70
2023/07/23 05:35:45;;;;;;;7.30;3.43;;;;;;;16.15;80.95;100476.63;5283414;28;20051;-70
2023/07/23 05:38:16;;;;;;;5.07;3.63;;;;;;;16.18;79.90;100469.47;5284160;28;20086;-70
2023/07/23 05:40:58;;;;;;;8.07;3.37;;;;;;;16.21;80.39;100458.81;5284092;28;20468;-69
2023/07/23 05:43:29;;;;;;;7.72;3.75;;;;;;;16.22;79.65;100467.56;5284030;28;20029;-71
2023/07/23 05:46:01;;;;;;;5.80;3.73;;;;;;;16.19;80.11;100465.91;5284262;28;20047;-70
2023/07/23 05:48:32;;;;;;;7.87;3.40;;;;;;;16.16;81.09;100465.19;5282209;28;20085;-70
2023/07/23 05:51:04;;;;;;;6.23;3.47;;;;;;;16.14;80.55;100470.50;5283872;28;20476;-71
2023/07/23 05:53:35;;;;;;;6.43;3.80;;;;;;;16.12;81.68;100474.13;5283683;28;20111;-70
2023/07/23 05:56:06;;;;;;;11.97;3.40;;;;;;;16.17;80.95;100469.53;5283466;28;20020;-70
2023/07/23 05:58:38;;;;;;;6.27;3.53;;;;;;;16.21;80.55;100468.47;5284011;28;20071;-70
2023/07/23 06:01:09;;;;;;;8.57;3.37;;;;;;;16.25;80.20;100458.69;5283522;28;20029;-70
2023/07/23 06:03:40;;;;;;;5.37;3.23;;;;;;;16.25;81.47;100464.81;5283803;28;20099;-71
2023/07/23 06:06:12;;;;;;;13.70;3.47;;;;;;;16.30;80.64;100473.34;5282093;28;20434;-70
2023/07/23 06:08:43;;;;;;;5.30;3.63;;;;;;;16.29;81.01;100466.38;5283640;28;20024;-70
2023/07/23 06:11:15;;;;;;;5.23;3.47;;;;;;;16.35;81.48;100470.53;5283790;28;20584;-69
2023/07/23 06:13:46;;;;;;;6.30;3.40;;;;;;;16.32;81.59;100466.25;5283543;28;20075;-70
2023/07/23 06:16:18;;;;;;;8.30;4.27;;;;;;;16.18;81.70;100469.47;5283447;28;20032;-70
2023/07/23 06:18:49;;;;;;;7.47;4.20;;;;;;;16.04;84.84;100470.03;5283223;28;20028;-70
2023/07/23 06:21:20;;;;;;;6.17;4.10;;;;;;;15.96;85.43;100476.50;5283586;28;20043;-70
2023/07/23 06:23:52;;;;;;;7.37;4.00;;;;;;;15.67;87.79;100478.50;5283473;28;20029;-70
2023/07/23 06:26:24;;;;;;;5.32;3.63;;;;;;;15.50;88.26;100469.50;5283397;28;20044;-74
2023/07/23 06:28:55;;;;;;;5.87;4.00;;;;;;;15.57;87.83;100472.72;5283486;28;20025;-70
2023/07/23 06:31:26;;;;;;;7.77;4.47;;;;;;;15.66;87.85;100472.38;5265634;28;20111;-71
2023/07/23 06:33:58;;;;;;;7.23;3.40;;;;;;;15.80;87.22;100476.28;5298966;28;20074;-70
2023/07/23 06:36:29;;;;;;;8.50;3.57;;;;;;;15.94;87.71;100484.47;5281649;28;20112;-70
2023/07/23 06:39:00;;;;;;;7.47;4.20;;;;;;;16.08;87.28;100483.03;5281865;28;20064;-70
2023/07/23 06:41:32;;;;;;;6.50;3.73;;;;;;;16.10;86.04;100486.47;5283410;28;20037;-71
2023/07/23 06:44:03;;;;;;;6.73;3.67;;;;;;;16.26;86.32;100492.81;5283352;28;20036;-70
2023/07/23 06:46:35;;;;;;;6.37;4.70;;;;;;;16.33;83.72;100496.91;5282115;28;20036;-71
2023/07/23 06:49:06;;;;;;;5.47;3.53;;;;;;;16.36;84.88;100494.16;5283190;28;20032;-70
2023/07/23 06:51:38;;;;;;;9.10;3.67;;;;;;;16.13;85.38;100505.63;5283180;28;20502;-71
2023/07/23 06:54:10;;;;;;;4.57;3.80;;;;;;;15.87;87.31;100493.50;5283110;28;20040;-71
2023/07/23 06:56:41;;;;;;;6.43;3.73;;;;;;;15.67;89.94;100494.25;5283184;28;20040;-71
2023/07/23 06:59:13;;;;;;;8.33;4.73;;;;;;;15.46;91.12;100511.69;5284369;28;20033;-71
2023/07/23 07:01:44;;;;;;;8.87;4.10;;;;;;;15.38;91.92;100514.59;5287416;28;20036;-70
2023/07/23 07:04:15;;;;;;;8.40;4.87;;;;;;;15.27;94.05;100501.84;5285531;28;20036;-71
2023/07/23 07:06:47;;;;;;;5.93;4.73;;;;;;;15.19;95.70;100501.28;5286776;28;20044;-71
2023/07/23 07:09:18;;;;;;;7.50;5.03;;;;;;;15.17;95.54;100518.88;5286291;28;20448;-70
2023/07/23 07:11:50;;;;;;;9.57;5.87;;;;;;;14.95;97.99;100501.25;5287112;28;20111;-72
2023/07/23 07:14:22;;;;;;;8.45;5.75;;;;;;;14.75;100.00;100504.56;5286320;28;20029;-71
2023/07/23 07:16:54;;;;;;;9.53;5.00;;;;;;;14.67;100.00;100495.28;5292593;28;20040;-71
2023/07/23 07:19:25;;;;;;;7.63;5.53;;;;;;;14.48;100.00;100493.22;5304284;28;20103;-71
2023/07/23 07:21:56;;;;;;;6.50;5.50;;;;;;;14.38;100.00;100490.06;5299500;28;20468;-71
2023/07/23 07:24:28;;;;;;;8.80;6.40;;;;;;;14.34;100.00;100491.06;5280356;28;20549;-71
2023/07/23 07:27:00;;;;;;;6.88;5.38;;;;;;;14.30;100.00;100494.69;5295658;28;20041;-70
2023/07/23 07:29:31;;;;;;;8.53;5.57;;;;;;;14.34;100.00;100490.22;5285333;28;20119;-70
2023/07/23 07:32:03;;;;;;;9.60;5.50;;;;;;;14.27;100.00;100496.56;5285680;28;20044;-71
2023/07/23 07:34:34;;;;;;;9.10;5.77;;;;;;;14.25;100.00;100490.50;5298257;28;20027;-70
2023/07/23 07:37:05;;;;;;;7.53;5.80;;;;;;;14.29;100.00;100489.50;5285253;28;20299;-71
2023/07/23 07:39:37;;;;;;;10.87;5.87;;;;;;;14.47;100.00;100498.53;5285233;28;20111;-71
2023/07/23 07:42:08;;;;;;;9.53;5.97;;;;;;;14.68;100.00;100491.72;5285668;28;20040;-70
2023/07/23 07:44:40;;;;;;;9.37;6.07;;;;;;;14.98;100.00;100497.66;5285018;28;20030;-69
2023/07/23 07:47:12;;;;;;;8.27;5.93;;;;;;;15.25;100.00;100503.69;5285338;28;20167;-70
2023/07/23 07:49:44;;;;;;;8.40;6.10;;;;;;;15.46;100.00;100499.41;5285128;28;20512;-71
2023/07/23 07:52:15;;;;;;;6.23;5.30;;;;;;;15.56;100.00;100510.41;5287409;28;20086;-71
2023/07/23 07:54:46;;;;;;;6.97;5.37;;;;;;;15.64;100.00;100502.25;5279805;28;20032;-71
2023/07/23 07:57:18;;;;;;;7.97;6.03;;;;;;;15.69;100.00;100503.78;5281074;28;20033;-71
2023/07/23 07:59:50;;;;;;;8.97;6.13;;;;;;;15.66;100.00;100495.16;5275727;28;20065;-70
2023/07/23 08:02:21;;;;;;;8.67;6.43;;;;;;;15.70;100.00;100499.38;5276760;28;20483;-70
2023/07/23 08:04:53;;;;;;;7.63;5.73;;;;;;;15.71;100.00;100495.81;5283428;28;20078;-71
2023/07/23 08:07:25;;;;;;;8.93;5.80;;;;;;;15.90;100.00;100506.50;5284518;28;20119;-71
2023/07/23 08:09:58;;;;;;;8.82;5.93;;;;;;;15.90;100.00;100501.25;5280095;28;20033;-71
2023/07/23 08:12:30;;;;;;;9.65;5.82;;;;;;;15.92;100.00;100488.91;5284587;28;20066;-71
2023/07/23 08:15:02;;;;;;;7.93;5.33;;;;;;;16.04;100.00;100493.69;5284541;28;20063;-70
2023/07/23 08:17:34;;;;;;;8.07;4.85;;;;;;;16.04;100.00;100490.22;5283493;28;20047;-71
2023/07/23 08:20:06;;;;;;;6.63;5.45;;;;;;;15.98;100.00;100498.34;5284625;28;20529;-70
2023/07/23 08:22:38;;;;;;;7.20;5.32;;;;;;;16.05;100.00;100499.78;5285188;28;20487;-70
2023/07/23 08:25:10;;;;;;;6.10;4.77;;;;;;;16.11;100.00;100493.44;5279955;28;20060;-71
2023/07/23 08:27:43;;;;;;;7.82;4.82;;;;;;;16.12;100.00;100492.53;5282935;28;20033;-70
2023/07/23 08:30:16;;;;;;;6.22;3.60;;;;;;;16.29;100.00;100494.47;5283534;28;20039;-70
2023/07/23 08:32:48;;;;;;;8.68;5.03;;;;;;;16.45;100.00;100494.69;5283462;28;20443;-70
2023/07/23 08:35:19;;;;;;;6.22;3.90;;;;;;;16.62;99.33;100505.34;5282854;28;20534;-72
2023/07/23 08:37:51;;;;;;;6.93;4.50;;;;;;;16.50;98.69;100497.97;5284439;28;20059;-71
2023/07/23 08:40:25;;;;;;;4.30;3.80;;;;;;;16.55;99.62;100498.63;5275146;28;20060;-71
2023/07/23 08:42:56;;;;;;;6.03;4.22;;;;;;;16.60;99.33;100496.69;5275717;28;20025;-71
2023/07/23 08:46:18;;;;;;;5.40;3.87;;;;;;;16.78;100.00;100495.88;5283218;28;20028;-71
2023/07/23 08:48:55;;;;;;;4.20;3.50;;;;;;;16.59;99.23;100503.69;5283471;28;20020;-71
2023/07/23 08:51:32;;;;;;;5.68;3.20;;;;;;;16.52;100.00;100498.78;5283261;28;20025;-70
2023/07/23 08:54:06;;;;;;;4.55;3.53;;;;;;;16.52;99.96;100493.50;5278430;28;20176;-72
2023/07/23 08:56:39;;;;;;;7.03;3.25;;;;;;;16.43;100.00;100499.16;5277098;28;20094;-70
2023/07/23 08:59:11;;;;;;;4.55;3.20;;;;;;;16.24;100.00;100492.00;5274858;28;20036;-70
2023/07/23 09:01:43;;;;;;;5.65;3.17;;;;;;;16.08;100.00;100498.81;5281255;28;20093;-70
2023/07/23 09:04:14;;;;;;;4.63;3.40;;;;;;;16.30;100.00;100489.13;5268668;28;20033;-70
2023/07/23 09:06:48;;;;;;;4.47;3.17;;;;;;;16.35;100.00;100491.56;5283087;28;20106;-69
2023/07/23 09:09:19;;;;;;;4.30;3.05;;;;;;;16.41;100.00;100500.06;5269344;28;20283;-71
2023/07/23 09:11:50;;;;;;;9.93;4.03;;;;;;;16.16;100.00;100492.31;5281797;28;20048;-71
2023/07/23 09:14:22;;;;;;;5.00;3.33;;;;;;;16.11;100.00;100502.16;5283208;28;20035;-71
2023/07/23 09:16:53;;;;;;;4.27;2.80;;;;;;;16.10;100.00;100500.47;5271522;28;20037;-71
2023/07/23 09:19:26;;;;;;;4.27;3.00;;;;;;;16.12;100.00;100503.91;5257847;28;20024;-71
2023/07/23 09:21:58;;;;;;;4.35;3.20;;;;;;;15.94;100.00;100505.50;5274837;28;20070;-70
2023/07/23 09:24:33;;;;;;;4.37;3.07;;;;;;;15.98;100.00;100499.19;5286522;28;20056;-72
2023/07/23 09:27:10;;;;;;;4.18;3.28;;;;;;;15.96;100.00;100506.28;5289760;28;20107;-72
2023/07/23 09:29:41;;;;;;;5.15;3.30;;;;;;;15.83;100.00;100502.44;5271138;28;20082;-71
2023/07/23 09:32:25;;;;;;;5.30;3.60;;;;;;;15.56;100.00;100504.31;5297567;28;20048;-72
2023/07/23 09:34:58;;;;;;;7.18;3.75;;;;;;;15.49;100.00;100514.22;5281992;28;20036;-72
2023/07/23 09:37:30;;;;;;;3.83;3.22;;;;;;;15.43;100.00;100511.81;5275366;28;20349;-72
2023/07/23 09:40:02;;;;;;;4.63;3.10;;;;;;;15.35;100.00;100509.44;5277990;28;20116;-72
2023/07/23 09:42:37;;;;;;;5.25;4.43;;;;;;;15.32;100.00;100510.41;5275751;28;20036;-72
2023/07/23 09:45:09;;;;;;;4.70;3.58;;;;;;;15.41;100.00;100509.22;5269248;28;20039;-71
2023/07/23 09:47:41;;;;;;;5.67;3.97;;;;;;;15.50;100.00;100518.53;5281257;28;20040;-71
2023/07/23 09:50:14;;;;;;;;;;;;;;;15.46;100.00;100514.31;5270677;28;20053;-73
2023/07/23 09:52:50;;;;;;;5.43;4.20;;;;;;;15.54;100.00;100514.88;5274126;28;19923;-72
2023/07/23 09:55:22;;;;;;;5.93;4.22;;;;;;;15.61;100.00;100518.97;5268080;28;20129;-73
2023/07/23 09:57:53;;;;;;;5.07;4.00;;;;;;;15.48;100.00;100509.84;5281452;28;20060;-72
2023/07/23 10:00:25;;;;;;;5.67;3.50;;;;;;;15.42;100.00;100510.97;5282145;28;20029;-71
2023/07/23 10:02:59;;;;;;;5.43;3.57;;;;;;;15.25;100.00;100519.44;5282707;28;20025;-70
2023/07/23 10:05:32;;;;;;;4.32;3.67;;;;;;;15.22;100.00;100519.56;5280377;28;20062;-71
2023/07/23 10:08:04;;;;;;;5.30;4.18;;;;;;;15.23;100.00;100525.66;5280975;28;20040;-72
2023/07/23 10:10:35;;;;;;;4.77;3.77;;;;;;;15.19;100.00;100518.81;5281458;28;20039;-71
2023/07/23 10:13:07;;;;;;;5.23;3.67;;;;;;;15.28;100.00;100529.00;5274280;28;20036;-72
2023/07/23 10:15:39;;;;;;;5.90;3.57;;;;;;;15.40;100.00;100525.91;5282291;28;20029;-70
2023/07/23 10:18:12;;;;;;;5.20;3.83;;;;;;;15.25;100.00;100529.94;5282885;28;20036;-71
2023/07/23 10:20:45;;;;;;;6.82;3.80;;;;;;;15.26;100.00;100534.31;5266257;28;20082;-71
2023/07/23 10:23:17;;;;;;;5.78;3.60;;;;;;;15.36;100.00;100521.69;5261907;28;20037;-71
2023/07/23 10:25:49;;;;;;;5.15;3.20;;;;;;;15.37;100.00;100522.53;5287259;28;20025;-70
2023/07/23 10:28:23;;;;;;;5.53;3.07;;;;;;;15.31;100.00;100519.22;5261622;28;20499;-70
2023/07/23 10:31:18;;;;;;;4.10;3.30;;;;;;;15.38;100.00;100524.25;5265745;28;20465;-72
2023/07/23 10:33:50;;;;;;;4.90;3.25;;;;;;;15.44;100.00;100524.88;5266924;28;20047;-72
2023/07/23 10:36:23;;;;;;;4.30;3.10;;;;;;;15.43;100.00;100527.56;5276696;28;20037;-72
2023/07/23 10:39:03;;;;;;;4.47;3.42;;;;;;;15.54;100.00;100540.31;5280672;28;20070;-72
2023/07/23 10:41:49;;;;;;;5.18;3.33;;;;;;;15.64;100.00;100533.78;5277284;28;20063;-71
2023/07/23 10:44:27;;;;;;;4.88;3.42;;;;;;;15.74;100.00;100526.41;5282187;28;20041;-71
2023/07/23 10:46:59;;;;;;;3.92;3.00;;;;;;;15.79;100.00;100532.38;5281655;28;20091;-71
2023/07/23 10:49:30;;;;;;;6.90;3.38;;;;;;;15.91;100.00;100531.91;5282002;28;20089;-71
2023/07/23 10:52:12;;;;;;;4.30;3.13;;;;;;;16.10;100.00;100533.78;5282629;28;20025;-71
2023/07/23 10:54:44;;;;;;;4.70;3.30;;;;;;;16.12;100.00;100519.66;5266689;28;20414;-71
2023/07/23 10:57:24;;;;;;;3.80;2.70;;;;;;;16.28;100.00;100526.97;5282602;28;20103;-71
2023/07/23 10:59:56;;;;;;;4.30;3.00;;;;;;;16.53;100.00;100522.38;5279677;28;20029;-71
2023/07/23 11:02:27;;;;;;;4.27;3.30;;;;;;;16.70;100.00;100526.94;5282281;28;20060;-71
2023/07/23 11:04:59;;;;;;;5.47;3.30;;;;;;;16.82;100.00;100538.72;5281841;28;20059;-71
2023/07/23 11:07:31;;;;;;;3.90;3.10;;;;;;;16.97;100.00;100528.47;5278409;28;20033;-69
2023/07/23 11:10:22;;;;;;;4.05;3.17;;;;;;;17.07;100.00;100541.19;5281801;28;20037;-70
2023/07/23 11:12:54;;;;;;;3.33;2.97;;;;;;;17.16;100.00;100539.06;5274100;28;20428;-70
2023/07/23 11:15:26;;;;;;;3.67;3.28;;;;;;;17.51;100.00;100545.38;5281754;28;20037;-70
2023/07/23 11:17:57;;;;;;;5.57;3.33;;;;;;;17.73;100.00;100534.72;5281098;28;20086;-71
2023/07/23 11:20:28;;;;;;;4.33;3.53;;;;;;;17.92;100.00;100533.84;5281230;28;20048;-69
2023/07/23 11:23:00;;;;;;;3.63;3.10;;;;;;;17.77;100.00;100544.16;5280833;28;20039;-70
2023/07/23 11:25:31;;;;;;;3.60;3.00;;;;;;;17.85;100.00;100533.28;5293550;28;20032;-71
2023/07/23 11:28:03;;;;;;;6.80;4.27;;;;;;;18.16;100.00;100537.09;5282329;28;20055;-71
2023/07/23 11:30:34;;;;;;;5.33;3.30;;;;;;;18.12;100.00;100536.41;5280242;28;20043;-71
2023/07/23 11:33:06;;;;;;;6.30;3.20;;;;;;;18.28;99.73;100539.16;5281806;28;20052;-71
2023/07/23 11:35:38;;;;;;;3.77;3.37;;;;;;;18.68;99.38;100537.19;5281108;28;20024;-70
2023/07/23 11:38:09;;;;;;;6.20;3.50;;;;;;;19.81;94.03;100537.44;5281864;28;20049;-70
2023/07/23 11:40:42;;;;;;;5.70;3.30;;;;;;;20.77;86.90;100526.72;5277433;28;20029;-71
2023/07/23 11:43:13;;;;;;;4.28;3.45;;;;;;;20.68;84.34;100540.50;5274668;28;20503;-71
2023/07/23 11:45:46;;;;;;;10.80;3.67;;;;;;;20.55;83.69;100538.53;5280927;28;20059;-71